Main page
METAR-TAF:

METAR-TAF

Airports :

Netaji Subhas Chandra Bose International Airport

Kolkata, India

latitude: 22-39N, longitude: 088-27E, elevation: 4 m

Current weather observation

The report was made 11 minutes ago, at 10:00 UTC
Wind 3 kt from the North/Northwest
Temperature 25°C
Humidity 65%
Pressure 1012 hPa
Visibility: 3200 m
Scattered clouds at a height of 1800 ft
Broken clouds at a height of 9000 ft
haze

METAR: VECC 241000Z 33003KT 3200 HZ SCT018 BKN090 25/18 Q1012 BECMG 3000 HZ

Time: 15:41 (10:11 UTC)

Forecast

The report was made 2 hours and 11 minutes ago, at 08:00 UTC
Forecast valid from 24 at 09 UTC to 24 at 18 UTC
Wind kt from the North
Visibility: 2000 m
Scattered clouds at a height of 1800 ft
Overcast at a height of 9000 ft
light rain, haze, light rain, mist

TAF: VECC 240800Z 2409/2418 18005KT 3200 -RA HZ SCT018 OVC090 .....BECMG 2416/2418 00000KT 2000 -RA BR

Weather observations and forecasts of more than 4000 airports (METAR and TAF reports).

The available stations are represented by yellow and red dots on the map.

Hover mouse over dot to see the name of the station.

Then click to see weather observations and forecasts.

To change the map : click on the green buttons with a black cross to zoom in, on the green button with a dash to zoom out, or on the green arrows for adjacent maps.


METAR-TAF: